Time;durP1;ratioP1;P1;durP2;ratioP2;P2;SDS_P1;SDS_P2;PMS_P1;PMS_P2;Temp;Humidity;BMP_temperature;BMP_pressure;BME280_temperature;BME280_humidity;BME280_pressure;Samples;Min_cycle;Max_cycle;Signal;HPM_P1;HPM_P2
2022/11/02 00:00:50;;;;;;;;;;;15.00;99.90;;;;;;5131417;27;19967;-70
2022/11/02 00:03:15;;;;;;;;;;;15.00;99.90;;;;;;5130559;27;20422;-70
2022/11/02 00:05:41;;;;;;;;;;;15.00;99.90;;;;;;5119085;27;19926;-70
2022/11/02 00:08:06;;;;;;;;;;;14.90;99.90;;;;;;5109979;27;20568;-70
2022/11/02 00:10:32;;;;;;;;;;;14.90;99.90;;;;;;5109362;27;19916;-70
2022/11/02 00:12:57;;;;;;;;;;;14.80;99.90;;;;;;5121775;27;20419;-70
2022/11/02 00:15:24;;;;;;;;;;;14.80;99.90;;;;;;5125290;27;19930;-70
2022/11/02 00:17:52;;;;;;;;;;;14.80;99.90;;;;;;5135043;27;19922;-71
2022/11/02 00:20:19;;;;;;;;;;;14.80;99.90;;;;;;5132049;27;19919;-70
2022/11/02 00:22:46;;;;;;;;;;;14.80;99.90;;;;;;5107780;27;19922;-70
2022/11/02 00:25:12;;;;;;;;;;;14.70;99.90;;;;;;5120071;27;19923;-70
2022/11/02 00:27:39;;;;;;;;;;;14.80;99.90;;;;;;5097196;27;19915;-70
2022/11/02 00:30:04;;;;;;;;;;;14.80;99.90;;;;;;5099591;28;20015;-70
2022/11/02 00:32:30;;;;;;;;;;;14.70;99.90;;;;;;5137100;27;19998;-70
2022/11/02 00:34:55;;;;;;;;;;;14.70;99.90;;;;;;5121552;27;19926;-70
2022/11/02 00:37:21;;;;;;;;;;;14.70;99.90;;;;;;5122944;27;19915;-70
2022/11/02 00:39:46;;;;;;;;;;;14.70;99.90;;;;;;5142518;27;20365;-70
2022/11/02 00:42:12;;;;;;;;;;;14.80;99.90;;;;;;5108459;27;19991;-70
2022/11/02 00:44:37;;;;;;;;;;;14.80;99.90;;;;;;5136506;27;19926;-69
2022/11/02 00:47:03;;;;;;;;;;;14.80;99.90;;;;;;5118916;27;19919;-70
2022/11/02 00:49:28;;;;;;;;;;;14.70;99.90;;;;;;5131906;27;20014;-70
2022/11/02 00:51:54;;;;;;;;;;;14.80;99.90;;;;;;5111428;27;20315;-70
2022/11/02 00:54:19;;;;;;;;;;;14.80;99.90;;;;;;5097010;28;19923;-70
2022/11/02 00:56:45;;;;;;;;;;;14.80;99.90;;;;;;5129071;27;19922;-70
2022/11/02 00:59:10;;;;;;;;;;;14.80;99.90;;;;;;5092210;27;19927;-70
2022/11/02 01:01:36;;;;;;;;;;;14.80;99.90;;;;;;5114269;27;19915;-70
2022/11/02 01:04:02;;;;;;;;;;;14.80;99.90;;;;;;5120926;27;19965;-70
2022/11/02 01:06:27;;;;;;;;;;;14.80;99.90;;;;;;5108690;27;19920;-70
2022/11/02 01:08:53;;;;;;;;;;;14.80;99.90;;;;;;5123958;27;20398;-70
2022/11/02 01:11:20;;;;;;;;;;;14.70;99.90;;;;;;5109788;27;19930;-70
2022/11/02 01:13:45;;;;;;;;;;;14.70;99.90;;;;;;5133391;27;20327;-70
2022/11/02 01:16:11;;;;;;;;;;;14.60;99.90;;;;;;5117644;27;19968;-70
2022/11/02 01:18:37;;;;;;;;;;;14.60;99.90;;;;;;5123915;27;19923;-70
2022/11/02 01:21:02;;;;;;;;;;;14.50;99.90;;;;;;5123660;27;19908;-70
2022/11/02 01:23:30;;;;;;;;;;;14.60;99.90;;;;;;5122475;27;20197;-69
2022/11/02 01:25:55;;;;;;;;;;;14.50;99.90;;;;;;5141513;27;20716;-70
2022/11/02 01:28:21;;;;;;;;;;;14.50;99.90;;;;;;5128974;27;19915;-70
2022/11/02 01:30:47;;;;;;;;;;;14.60;99.90;;;;;;5122604;27;20153;-70
2022/11/02 01:33:12;;;;;;;;;;;14.50;99.90;;;;;;5135763;27;20433;-70
2022/11/02 01:35:38;;;;;;;;;;;14.40;99.90;;;;;;5108983;27;19998;-70
2022/11/02 01:38:03;;;;;;;;;;;14.40;99.90;;;;;;5110524;27;19979;-70
2022/11/02 01:40:36;;;;;;;;;;;14.40;99.90;;;;;;5120207;27;19922;-69
2022/11/02 01:43:17;;;;;;;;;;;14.30;99.90;;;;;;5141618;27;19911;-70
2022/11/02 01:45:42;;;;;;;;;;;14.30;99.90;;;;;;5135022;27;19916;-70
2022/11/02 01:48:08;;;;;;;;;;;14.30;99.90;;;;;;5121557;27;19925;-70
2022/11/02 01:50:33;;;;;;;;;;;14.30;99.90;;;;;;5103690;27;20315;-70
2022/11/02 01:52:59;;;;;;;;;;;14.20;99.90;;;;;;5101996;28;19928;-70
2022/11/02 01:55:28;;;;;;;;;;;14.20;99.90;;;;;;5112349;27;20145;-70
2022/11/02 01:57:59;;;;;;;;;;;14.10;99.90;;;;;;5132693;27;19951;-70
2022/11/02 02:00:25;;;;;;;;;;;14.10;99.90;;;;;;5127339;27;20005;-70
2022/11/02 02:02:54;;;;;;;;;;;14.10;99.90;;;;;;5109004;27;20463;-70
2022/11/02 02:05:20;;;;;;;;;;;14.10;99.90;;;;;;5139116;27;19916;-70
2022/11/02 02:07:46;;;;;;;;;;;14.00;99.90;;;;;;5114529;27;19915;-70
2022/11/02 02:10:12;;;;;;;;;;;14.00;99.90;;;;;;5104138;27;20006;-70
2022/11/02 02:12:38;;;;;;;;;;;14.00;99.90;;;;;;5123714;27;19916;-70
2022/11/02 02:15:04;;;;;;;;;;;14.00;99.90;;;;;;5136460;27;19911;-70
2022/11/02 02:17:35;;;;;;;;;;;14.10;99.90;;;;;;5120150;27;20422;-70
2022/11/02 02:20:16;;;;;;;;;;;14.00;99.90;;;;;;5135041;27;20004;-70
2022/11/02 02:22:48;;;;;;;;;;;14.00;99.90;;;;;;5123452;27;19942;-70
2022/11/02 02:25:32;;;;;;;;;;;13.90;99.90;;;;;;5117331;27;19923;-70
2022/11/02 02:27:57;;;;;;;;;;;13.90;99.90;;;;;;5102167;28;19915;-70
2022/11/02 02:30:23;;;;;;;;;;;13.90;99.90;;;;;;5115669;27;19915;-70
2022/11/02 02:32:49;;;;;;;;;;;13.90;99.90;;;;;;5103196;27;20343;-70
2022/11/02 02:35:25;;;;;;;;;;;13.90;99.90;;;;;;5125342;27;20435;-70
2022/11/02 02:37:56;;;;;;;;;;;13.90;99.90;;;;;;5122320;27;20242;-70
2022/11/02 02:40:26;;;;;;;;;;;13.90;99.90;;;;;;5120835;27;19916;-71
2022/11/02 02:42:54;;;;;;;;;;;13.90;99.90;;;;;;5133382;27;20006;-70
2022/11/02 02:45:23;;;;;;;;;;;13.90;99.90;;;;;;5116709;27;20084;-70
2022/11/02 02:47:53;;;;;;;;;;;14.00;99.90;;;;;;5117201;27;20029;-70
2022/11/02 02:50:21;;;;;;;;;;;14.00;99.90;;;;;;5137766;27;19912;-69
2022/11/02 02:52:48;;;;;;;;;;;14.00;99.90;;;;;;5141940;27;19922;-69
2022/11/02 02:55:17;;;;;;;;;;;14.00;99.90;;;;;;5123738;27;19925;-70
2022/11/02 02:57:43;;;;;;;;;;;14.10;99.90;;;;;;5113964;27;19938;-70
2022/11/02 03:00:16;;;;;;;;;;;14.00;99.90;;;;;;5084096;28;19922;-70
2022/11/02 03:02:42;;;;;;;;;;;14.20;99.90;;;;;;5112571;27;19915;-71
2022/11/02 03:05:23;;;;;;;;;;;14.10;99.90;;;;;;5120219;27;19927;-70
2022/11/02 03:07:49;;;;;;;;;;;14.10;99.90;;;;;;5139252;27;19919;-70
2022/11/02 03:10:17;;;;;;;;;;;14.10;99.90;;;;;;5127288;27;19921;-70
2022/11/02 03:13:02;;;;;;;;;;;14.10;99.90;;;;;;5115274;27;20428;-71
2022/11/02 03:15:36;;;;;;;;;;;14.10;99.90;;;;;;5117689;27;20015;-70
2022/11/02 03:18:07;;;;;;;;;;;14.10;99.90;;;;;;5120819;27;19911;-71
2022/11/02 03:20:36;;;;;;;;;;;14.00;99.90;;;;;;5133004;27;20010;-71
2022/11/02 03:23:01;;;;;;;;;;;14.00;99.90;;;;;;5120503;27;19961;-70
2022/11/02 03:25:29;;;;;;;;;;;14.00;99.90;;;;;;5099227;27;19916;-70
2022/11/02 03:27:57;;;;;;;;;;;14.00;99.90;;;;;;5110840;27;19962;-71
2022/11/02 03:30:25;;;;;;;;;;;13.90;99.90;;;;;;5104155;27;19916;-70
2022/11/02 03:32:56;;;;;;;;;;;13.90;99.90;;;;;;5096193;28;19942;-69
2022/11/02 03:35:34;;;;;;;;;;;13.90;99.90;;;;;;5125416;27;19926;-70
2022/11/02 03:38:02;;;;;;;;;;;14.00;99.90;;;;;;5099925;28;19919;-70
2022/11/02 03:40:30;;;;;;;;;;;14.00;99.90;;;;;;5088556;27;19921;-70
2022/11/02 03:42:56;;;;;;;;;;;14.00;99.90;;;;;;5121850;27;19915;-70
2022/11/02 03:45:28;;;;;;;;;;;14.00;99.90;;;;;;5128557;27;20460;-70
2022/11/02 03:47:57;;;;;;;;;;;13.90;99.90;;;;;;5129815;27;19920;-70
2022/11/02 03:50:23;;;;;;;;;;;13.90;99.90;;;;;;5121626;27;19916;-70
2022/11/02 03:52:53;;;;;;;;;;;13.90;99.90;;;;;;5128588;27;20025;-69
2022/11/02 03:55:23;;;;;;;;;;;13.90;99.90;;;;;;5133654;27;19915;-70
2022/11/02 03:57:49;;;;;;;;;;;13.90;99.90;;;;;;5137772;27;20366;-70
2022/11/02 04:00:16;;;;;;;;;;;13.80;99.90;;;;;;5133831;27;19986;-70
2022/11/02 04:02:44;;;;;;;;;;;13.70;99.90;;;;;;5123823;27;20257;-70
2022/11/02 04:05:10;;;;;;;;;;;13.70;99.90;;;;;;5128715;27;20018;-70
2022/11/02 04:10:21;;;;;;;;;;;13.70;99.90;;;;;;5104091;27;19923;-69
2022/11/02 04:15:30;;;;;;;;;;;13.70;99.90;;;;;;5103289;28;19919;-70
2022/11/02 04:20:40;;;;;;;;;;;13.50;99.90;;;;;;5102208;27;19966;-70
2022/11/02 04:25:53;;;;;;;;;;;13.50;99.90;;;;;;5120097;27;19922;-70
2022/11/02 04:28:18;;;;;;;;;;;13.50;99.90;;;;;;5119797;27;19922;-70
2022/11/02 04:30:44;;;;;;;;;;;13.50;99.90;;;;;;5122020;27;19915;-70
2022/11/02 04:35:54;;;;;;;;;;;13.40;99.90;;;;;;5118401;27;19957;-70
2022/11/02 04:44:01;;;;;;;;;;;13.30;99.90;;;;;;5095539;27;20362;-70
2022/11/02 04:46:28;;;;;;;;;;;13.20;99.90;;;;;;5144072;27;19918;-70
2022/11/02 04:48:54;;;;;;;;;;;13.20;99.90;;;;;;5128875;27;20356;-70
2022/11/02 04:51:20;;;;;;;;;;;13.20;99.90;;;;;;5083884;28;19916;-70
2022/11/02 04:53:46;;;;;;;;;;;13.30;99.90;;;;;;5103113;28;20240;-70
2022/11/02 04:56:12;;;;;;;;;;;13.30;99.90;;;;;;5109633;27;20142;-70
2022/11/02 04:58:37;;;;;;;;;;;13.40;99.90;;;;;;5102765;28;20007;-71
2022/11/02 05:01:03;;;;;;;;;;;13.30;99.90;;;;;;5104381;27;19952;-70
2022/11/02 05:03:29;;;;;;;;;;;13.30;99.90;;;;;;5122461;27;19927;-70
2022/11/02 05:05:54;;;;;;;;;;;13.30;99.90;;;;;;5131153;27;20293;-70
2022/11/02 05:08:20;;;;;;;;;;;13.20;99.90;;;;;;5144311;27;19959;-70
2022/11/02 05:10:45;;;;;;;;;;;13.20;99.90;;;;;;5142311;27;19986;-70
2022/11/02 05:13:11;;;;;;;;;;;13.10;99.90;;;;;;5108510;27;19916;-71
2022/11/02 05:15:39;;;;;;;;;;;13.10;99.90;;;;;;5123091;27;19919;-70
2022/11/02 05:18:05;;;;;;;;;;;13.00;99.90;;;;;;5093954;27;19915;-70
2022/11/02 05:20:30;;;;;;;;;;;13.00;99.90;;;;;;5133750;27;20288;-70
2022/11/02 05:22:56;;;;;;;;;;;13.00;99.90;;;;;;5142077;27;19965;-70
2022/11/02 05:25:21;;;;;;;;;;;12.90;99.90;;;;;;5140341;27;19937;-70
2022/11/02 05:27:47;;;;;;;;;;;12.90;99.90;;;;;;5131561;27;19922;-70
2022/11/02 05:30:12;;;;;;;;;;;12.90;99.90;;;;;;5095763;27;19915;-70
2022/11/02 05:32:38;;;;;;;;;;;12.80;99.90;;;;;;5110717;27;19956;-70
2022/11/02 05:35:04;;;;;;;;;;;12.90;99.90;;;;;;5140795;27;19994;-70
2022/11/02 05:37:29;;;;;;;;;;;12.90;99.90;;;;;;5137935;27;19977;-70
2022/11/02 05:39:55;;;;;;;;;;;12.80;99.90;;;;;;5133833;27;20045;-70
2022/11/02 05:42:20;;;;;;;;;;;12.80;99.90;;;;;;5143704;27;19923;-70
2022/11/02 05:44:46;;;;;;;;;;;12.80;99.90;;;;;;5082870;28;19928;-70
2022/11/02 05:47:11;;;;;;;;;;;12.80;99.90;;;;;;5106782;27;19919;-70
2022/11/02 05:49:37;;;;;;;;;;;12.80;99.90;;;;;;5135783;27;20468;-70
2022/11/02 05:52:02;;;;;;;;;;;12.90;99.90;;;;;;5111479;27;20007;-70
2022/11/02 05:54:28;;;;;;;;;;;12.90;99.90;;;;;;5103211;27;20019;-70
2022/11/02 05:56:53;;;;;;;;;;;12.90;99.90;;;;;;5129361;27;19922;-70
2022/11/02 05:59:19;;;;;;;;;;;12.90;99.90;;;;;;5121798;27;19975;-70
2022/11/02 06:01:44;;;;;;;;;;;13.00;99.90;;;;;;5120455;27;19918;-70
2022/11/02 06:04:10;;;;;;;;;;;13.00;99.90;;;;;;5112323;27;20014;-69
2022/11/02 06:06:35;;;;;;;;;;;13.00;99.90;;;;;;5104719;27;20812;-70
2022/11/02 06:09:01;;;;;;;;;;;13.00;99.90;;;;;;5097857;28;19923;-70
2022/11/02 06:11:26;;;;;;;;;;;13.00;99.90;;;;;;5100014;27;19959;-70
2022/11/02 06:13:52;;;;;;;;;;;13.00;99.90;;;;;;5114733;27;19962;-70
2022/11/02 06:16:17;;;;;;;;;;;12.90;99.90;;;;;;5119565;27;20010;-70
2022/11/02 06:18:44;;;;;;;;;;;12.90;99.90;;;;;;5104346;27;19937;-70
2022/11/02 06:21:10;;;;;;;;;;;12.90;99.90;;;;;;5111061;27;19915;-70
2022/11/02 06:23:36;;;;;;;;;;;12.80;99.90;;;;;;5097734;28;19979;-70
2022/11/02 06:26:02;;;;;;;;;;;12.70;99.90;;;;;;5113246;27;19921;-70
2022/11/02 06:28:28;;;;;;;;;;;12.70;99.90;;;;;;5125327;27;19989;-70
2022/11/02 06:30:53;;;;;;;;;;;12.70;99.90;;;;;;5136813;27;19991;-70
2022/11/02 06:33:19;;;;;;;;;;;12.80;99.90;;;;;;5136509;27;19922;-69
2022/11/02 06:35:45;;;;;;;;;;;12.90;99.90;;;;;;5096441;27;19911;-70
2022/11/02 06:38:11;;;;;;;;;;;12.80;99.90;;;;;;5101377;27;20364;-70
2022/11/02 06:40:36;;;;;;;;;;;12.90;99.90;;;;;;5098332;28;20399;-70
2022/11/02 06:43:02;;;;;;;;;;;12.90;99.90;;;;;;5098683;28;20375;-70
2022/11/02 06:45:27;;;;;;;;;;;12.90;99.90;;;;;;5125597;27;20358;-70
2022/11/02 06:47:53;;;;;;;;;;;12.90;99.90;;;;;;5113611;27;19968;-69
2022/11/02 06:50:19;;;;;;;;;;;12.90;99.90;;;;;;5118950;27;20246;-70
2022/11/02 06:52:45;;;;;;;;;;;12.80;99.90;;;;;;5124112;27;19916;-70
2022/11/02 06:55:11;;;;;;;;;;;12.90;99.90;;;;;;5112023;27;20022;-70
2022/11/02 06:57:37;;;;;;;;;;;12.90;99.90;;;;;;5100856;28;19915;-70
2022/11/02 07:00:03;;;;;;;;;;;13.10;99.90;;;;;;5118926;27;20021;-70
2022/11/02 07:02:29;;;;;;;;;;;13.30;99.90;;;;;;5097148;27;20516;-69
2022/11/02 07:04:55;;;;;;;;;;;13.40;99.90;;;;;;5100978;27;20490;-69
2022/11/02 07:07:21;;;;;;;;;;;13.60;99.90;;;;;;5095380;27;20173;-70
2022/11/02 07:09:47;;;;;;;;;;;13.70;99.90;;;;;;5106542;27;20028;-70
2022/11/02 07:12:12;;;;;;;;;;;13.80;99.90;;;;;;5120854;27;19912;-70
2022/11/02 07:14:38;;;;;;;;;;;13.80;99.90;;;;;;5106726;27;19942;-70
2022/11/02 07:17:03;;;;;;;;;;;13.90;99.90;;;;;;5103743;27;19955;-70
2022/11/02 07:19:29;;;;;;;;;;;13.90;99.90;;;;;;5107025;27;20049;-70
2022/11/02 07:21:54;;;;;;;;;;;13.90;99.90;;;;;;5117368;27;19919;-70
2022/11/02 07:24:20;;;;;;;;;;;13.90;99.90;;;;;;5102984;27;20064;-70
2022/11/02 07:26:49;;;;;;;;;;;13.90;99.90;;;;;;5106463;27;20307;-70
2022/11/02 07:29:17;;;;;;;;;;;13.90;99.90;;;;;;5102798;27;19915;-70
2022/11/02 07:31:43;;;;;;;;;;;14.10;99.90;;;;;;5117124;27;20313;-70
2022/11/02 07:34:09;;;;;;;;;;;14.00;99.90;;;;;;5117701;27;19915;-70
2022/11/02 07:36:34;;;;;;;;;;;14.00;99.90;;;;;;5116808;27;20042;-70
2022/11/02 07:39:00;;;;;;;;;;;14.00;99.90;;;;;;5108012;27;20048;-70
2022/11/02 07:41:25;;;;;;;;;;;14.10;99.90;;;;;;4769606;27;10000355;-70
2022/11/02 07:43:51;;;;;;;;;;;14.20;99.90;;;;;;5122791;27;19934;-70
2022/11/02 07:46:17;;;;;;;;;;;14.40;99.90;;;;;;5120883;27;19962;-70
2022/11/02 07:48:43;;;;;;;;;;;14.60;99.90;;;;;;5097049;28;19915;-70
2022/11/02 07:51:10;;;;;;;;;;;14.60;99.90;;;;;;5114885;27;19923;-70
2022/11/02 07:53:35;;;;;;;;;;;14.60;99.90;;;;;;5115507;27;20002;-70
2022/11/02 07:56:03;;;;;;;;;;;14.70;99.90;;;;;;5117893;27;21339;-70
2022/11/02 07:58:29;;;;;;;;;;;14.80;99.90;;;;;;5086455;27;20008;-70
2022/11/02 08:00:56;;;;;;;;;;;15.00;99.90;;;;;;5083614;28;19973;-70
2022/11/02 08:03:22;;;;;;;;;;;15.30;99.90;;;;;;5102272;27;20323;-71
2022/11/02 08:05:47;;;;;;;;;;;15.50;99.90;;;;;;5111711;27;19971;-71
2022/11/02 08:08:15;;;;;;;;;;;15.70;99.90;;;;;;5130268;27;19923;-71
2022/11/02 08:10:41;;;;;;;;;;;16.10;99.90;;;;;;5130393;27;20345;-70
2022/11/02 08:13:07;;;;;;;;;;;16.60;99.90;;;;;;5129896;27;20384;-70
2022/11/02 08:15:33;;;;;;;;;;;17.40;99.90;;;;;;5121259;27;19922;-70
2022/11/02 08:18:05;;;;;;;;;;;18.10;99.90;;;;;;5116564;27;19915;-70
2022/11/02 08:20:31;;;;;;;;;;;19.00;99.90;;;;;;5107270;27;19916;-70
2022/11/02 08:22:57;;;;;;;;;;;19.70;99.90;;;;;;5094854;28;19915;-70
2022/11/02 08:25:23;;;;;;;;;;;20.00;99.90;;;;;;5113481;28;19927;-70
2022/11/02 08:27:48;;;;;;;;;;;19.80;99.90;;;;;;5105179;27;20017;-71
2022/11/02 08:30:14;;;;;;;;;;;19.40;99.90;;;;;;5106425;27;20006;-71
2022/11/02 08:32:39;;;;;;;;;;;19.20;99.90;;;;;;5107112;27;19924;-70
2022/11/02 08:35:05;;;;;;;;;;;19.10;99.90;;;;;;5106540;27;20362;-70
2022/11/02 08:37:31;;;;;;;;;;;19.00;99.90;;;;;;5087775;27;20046;-70
2022/11/02 08:39:56;;;;;;;;;;;19.10;99.90;;;;;;5105929;27;19915;-70
2022/11/02 08:42:22;;;;;;;;;;;19.20;99.90;;;;;;5112370;27;20584;-69
2022/11/02 08:44:47;;;;;;;;;;;19.10;99.90;;;;;;5116604;27;20006;-71
2022/11/02 08:47:14;;;;;;;;;;;19.20;99.90;;;;;;5107257;27;19923;-71
2022/11/02 08:49:40;;;;;;;;;;;19.30;99.90;;;;;;5113795;27;19919;-70
2022/11/02 08:52:06;;;;;;;;;;;19.50;99.90;;;;;;5096412;27;19919;-71
2022/11/02 08:54:31;;;;;;;;;;;19.40;99.90;;;;;;5109590;27;19928;-71
2022/11/02 08:56:57;;;;;;;;;;;19.10;99.90;;;;;;5110433;27;19915;-71
2022/11/02 08:59:22;;;;;;;;;;;18.70;99.90;;;;;;5123562;27;19923;-71
2022/11/02 09:01:48;;;;;;;;;;;18.40;99.90;;;;;;5118443;27;19915;-70
2022/11/02 09:04:13;;;;;;;;;;;18.00;99.90;;;;;;5099840;27;20047;-71
2022/11/02 09:06:39;;;;;;;;;;;18.00;99.90;;;;;;5110488;27;20124;-71
2022/11/02 09:09:04;;;;;;;;;;;18.80;99.90;;;;;;5124528;27;19931;-72
2022/11/02 09:11:30;;;;;;;;;;;19.60;99.90;;;;;;5112833;27;19919;-71
2022/11/02 09:13:55;;;;;;;;;;;20.00;99.90;;;;;;5112326;27;20006;-72
2022/11/02 09:16:21;;;;;;;;;;;21.30;99.90;;;;;;5130860;27;20377;-72
2022/11/02 09:18:46;;;;;;;;;;;22.70;99.90;;;;;;5124071;27;19912;-70
2022/11/02 09:21:12;;;;;;;;;;;23.80;99.90;;;;;;5117619;27;20053;-71
2022/11/02 09:23:37;;;;;;;;;;;24.30;99.90;;;;;;5114730;27;19930;-71
2022/11/02 09:26:03;;;;;;;;;;;23.70;99.90;;;;;;5113444;27;20378;-70
2022/11/02 09:28:28;;;;;;;;;;;23.10;99.90;;;;;;5094573;27;20383;-71
2022/11/02 09:30:54;;;;;;;;;;;22.70;99.90;;;;;;5094010;27;20518;-71
2022/11/02 09:33:19;;;;;;;;;;;22.50;99.90;;;;;;5098304;27;19926;-70
2022/11/02 09:35:46;;;;;;;;;;;22.90;99.90;;;;;;5112232;27;19923;-71
2022/11/02 09:38:12;;;;;;;;;;;22.20;99.90;;;;;;5123490;27;19922;-71
2022/11/02 09:40:39;;;;;;;;;;;21.50;99.90;;;;;;5111544;27;19911;-71
2022/11/02 09:43:04;;;;;;;;;;;20.70;99.90;;;;;;5112148;27;20347;-71
2022/11/02 09:45:32;;;;;;;;;;;19.70;99.90;;;;;;4754260;27;10000353;-71
2022/11/02 09:48:16;;;;;;;;;;;18.60;99.90;;;;;;5091596;27;19968;-71
2022/11/02 09:50:48;;;;;;;;;;;17.60;99.90;;;;;;5101747;27;20459;-70
2022/11/02 09:53:17;;;;;;;;;;;17.30;99.90;;;;;;5111362;27;20055;-71
2022/11/02 09:55:47;;;;;;;;;;;16.80;99.90;;;;;;5109968;27;19915;-71
2022/11/02 09:58:15;;;;;;;;;;;16.60;99.90;;;;;;5107955;27;19919;-71
2022/11/02 10:00:41;;;;;;;;;;;16.50;99.90;;;;;;5118606;27;19923;-72
2022/11/02 10:03:27;;;;;;;;;;;16.90;99.90;;;;;;5101655;27;19925;-71
2022/11/02 10:06:00;;;;;;;;;;;17.20;99.90;;;;;;5101190;27;19973;-70
2022/11/02 10:08:46;;;;;;;;;;;17.10;99.90;;;;;;4749519;27;9999857;-71
2022/11/02 10:11:18;;;;;;;;;;;16.70;99.90;;;;;;5103638;27;19934;-71
2022/11/02 10:14:03;;;;;;;;;;;16.40;99.90;;;;;;5137815;27;20006;-71
2022/11/02 10:16:35;;;;;;;;;;;16.20;99.90;;;;;;5077615;27;19919;-71
2022/11/02 10:19:01;;;;;;;;;;;16.60;99.90;;;;;;5115575;27;20335;-71
2022/11/02 10:21:33;;;;;;;;;;;17.60;99.90;;;;;;5120099;27;20075;-71
2022/11/02 10:24:00;;;;;;;;;;;18.60;99.90;;;;;;5121746;27;20437;-71
2022/11/02 10:26:27;;;;;;;;;;;18.50;99.90;;;;;;5128513;27;20018;-71
2022/11/02 10:28:56;;;;;;;;;;;18.90;99.90;;;;;;5112027;27;19919;-71
2022/11/02 10:31:29;;;;;;;;;;;19.40;99.90;;;;;;5102683;27;20070;-71
2022/11/02 10:33:55;;;;;;;;;;;19.70;99.90;;;;;;5098273;28;19923;-72
2022/11/02 10:36:21;;;;;;;;;;;19.00;99.90;;;;;;5108568;27;19915;-71
2022/11/02 10:39:05;;;;;;;;;;;19.10;99.90;;;;;;5113617;27;19930;-71
2022/11/02 10:41:36;;;;;;;;;;;19.30;99.90;;;;;;5100110;27;20412;-72
2022/11/02 10:44:11;;;;;;;;;;;19.30;99.90;;;;;;5098736;27;20883;-71
2022/11/02 10:47:03;;;;;;;;;;;19.50;99.90;;;;;;5121143;27;19954;-72
2022/11/02 10:49:28;;;;;;;;;;;19.40;99.90;;;;;;5107509;27;19923;-71
2022/11/02 10:51:54;;;;;;;;;;;19.00;99.90;;;;;;5111296;27;19927;-73
2022/11/02 10:54:19;;;;;;;;;;;18.40;99.90;;;;;;5103464;27;20294;-73
2022/11/02 10:56:48;;;;;;;;;;;18.40;99.90;;;;;;5115134;27;20010;-71
2022/11/02 10:59:22;;;;;;;;;;;18.10;99.90;;;;;;5114493;27;19962;-72
2022/11/02 11:02:01;;;;;;;;;;;18.10;99.90;;;;;;5118515;27;19916;-73
2022/11/02 11:04:27;;;;;;;;;;;18.20;99.90;;;;;;5106313;27;19929;-72
2022/11/02 11:06:53;;;;;;;;;;;18.40;99.90;;;;;;5117844;27;19915;-71
2022/11/02 11:09:20;;;;;;;;;;;18.60;99.90;;;;;;5092565;27;20070;-72
2022/11/02 11:12:06;;;;;;;;;;;18.20;99.90;;;;;;5113682;27;19915;-71
2022/11/02 11:14:36;;;;;;;;;;;17.60;99.90;;;;;;5101913;27;19999;-72
2022/11/02 11:17:02;;;;;;;;;;;17.30;99.90;;;;;;5120872;27;19951;-72
2022/11/02 11:19:33;;;;;;;;;;;17.10;99.90;;;;;;5100525;27;20252;-71
2022/11/02 11:21:59;;;;;;;;;;;17.10;99.90;;;;;;5111021;27;20373;-71
2022/11/02 11:24:25;;;;;;;;;;;16.80;99.90;;;;;;5105639;27;19923;-72
2022/11/02 11:27:09;;;;;;;;;;;16.70;99.90;;;;;;5107949;27;19922;-72
2022/11/02 11:29:37;;;;;;;;;;;16.60;99.90;;;;;;5104018;27;19979;-72
2022/11/02 11:32:03;;;;;;;;;;;16.60;99.90;;;;;;5110318;27;20382;-72
2022/11/02 11:34:30;;;;;;;;;;;16.70;99.90;;;;;;5096050;27;19915;-72
2022/11/02 11:37:06;;;;;;;;;;;16.90;99.90;;;;;;5114234;27;19951;-72
2022/11/02 11:39:32;;;;;;;;;;;16.90;99.90;;;;;;5105948;27;19915;-72
2022/11/02 11:41:59;;;;;;;;;;;16.50;99.90;;;;;;5106346;27;19927;-73
2022/11/02 11:44:24;;;;;;;;;;;16.20;99.90;;;;;;5104887;27;19980;-72
2022/11/02 11:46:53;;;;;;;;;;;16.10;99.90;;;;;;5106263;27;20330;-73
2022/11/02 11:49:38;;;;;;;;;;;16.10;99.90;;;;;;5109194;27;20025;-73
2022/11/02 11:52:04;;;;;;;;;;;16.10;99.90;;;;;;5118690;27;19922;-72
2022/11/02 11:54:31;;;;;;;;;;;16.30;99.90;;;;;;5121973;27;19929;-71
2022/11/02 11:56:57;;;;;;;;;;;16.40;99.90;;;;;;5119820;27;19916;-71
2022/11/02 11:59:23;;;;;;;;;;;16.30;99.90;;;;;;5118150;27;19957;-71
2022/11/02 12:01:50;;;;;;;;;;;16.40;99.90;;;;;;5119103;27;20378;-72
2022/11/02 12:04:26;;;;;;;;;;;16.30;99.90;;;;;;5098390;28;19919;-72
2022/11/02 12:06:57;;;;;;;;;;;16.50;99.90;;;;;;5120152;27;19922;-72
2022/11/02 12:09:42;;;;;;;;;;;16.70;99.90;;;;;;5098849;28;19915;-73
2022/11/02 12:12:20;;;;;;;;;;;16.90;99.90;;;;;;5120169;28;19927;-72
2022/11/02 12:15:03;;;;;;;;;;;16.80;99.90;;;;;;5118295;27;19964;-72
2022/11/02 12:17:32;;;;;;;;;;;16.80;99.90;;;;;;5113902;27;19926;-72
2022/11/02 12:20:00;;;;;;;;;;;16.70;99.90;;;;;;5102224;27;19945;-72
2022/11/02 12:22:26;;;;;;;;;;;16.60;99.90;;;;;;5115676;27;19915;-72
2022/11/02 12:24:51;;;;;;;;;;;16.70;99.90;;;;;;5120532;27;19946;-73
2022/11/02 12:27:29;;;;;;;;;;;17.10;99.90;;;;;;5113693;27;20163;-72
2022/11/02 12:29:59;;;;;;;;;;;17.20;99.90;;;;;;5120557;27;19940;-72
2022/11/02 12:32:34;;;;;;;;;;;17.10;99.90;;;;;;5087739;27;20297;-72
2022/11/02 12:35:12;;;;;;;;;;;17.00;99.90;;;;;;5105289;27;20143;-72
2022/11/02 12:37:59;;;;;;;;;;;17.00;99.90;;;;;;5109922;27;19930;-72
2022/11/02 12:40:30;;;;;;;;;;;16.80;99.90;;;;;;5103736;28;19921;-72
2022/11/02 12:42:56;;;;;;;;;;;16.60;99.90;;;;;;5114054;27;20362;-71
2022/11/02 12:45:48;;;;;;;;;;;16.50;99.90;;;;;;5134277;27;19926;-71
2022/11/02 12:48:20;;;;;;;;;;;16.20;99.90;;;;;;5089438;27;20333;-72
2022/11/02 12:50:58;;;;;;;;;;;15.90;99.90;;;;;;5124031;27;19930;-72
2022/11/02 12:53:47;;;;;;;;;;;15.80;99.90;;;;;;5104906;27;20367;-72
2022/11/02 12:56:33;;;;;;;;;;;15.80;99.90;;;;;;5113720;27;19923;-72
2022/11/02 12:58:59;;;;;;;;;;;15.80;99.90;;;;;;5118866;27;19922;-71
2022/11/02 13:01:36;;;;;;;;;;;15.90;99.90;;;;;;5132024;27;19915;-70
2022/11/02 13:04:10;;;;;;;;;;;15.90;99.90;;;;;;5120573;27;20115;-71
2022/11/02 13:06:40;;;;;;;;;;;16.10;99.90;;;;;;5117312;27;19958;-71
2022/11/02 13:09:21;;;;;;;;;;;16.10;99.90;;;;;;5114102;27;19915;-71
2022/11/02 13:11:53;;;;;;;;;;;16.00;99.90;;;;;;5127535;27;19922;-72
2022/11/02 13:14:19;;;;;;;;;;;15.90;99.90;;;;;;5118425;27;19914;-71
2022/11/02 13:16:45;;;;;;;;;;;16.00;99.90;;;;;;5134671;27;20003;-70
2022/11/02 13:19:17;;;;;;;;;;;15.80;99.90;;;;;;5113442;27;19919;-71
2022/11/02 13:21:45;;;;;;;;;;;15.70;99.90;;;;;;5123645;27;19958;-71
2022/11/02 13:24:14;;;;;;;;;;;15.60;99.90;;;;;;5120798;27;19935;-71
2022/11/02 13:26:41;;;;;;;;;;;15.60;99.90;;;;;;5115122;27;20208;-71
2022/11/02 13:29:22;;;;;;;;;;;15.70;99.90;;;;;;5131981;27;19960;-71
2022/11/02 13:31:50;;;;;;;;;;;15.70;99.90;;;;;;5121845;27;19923;-71
2022/11/02 13:34:18;;;;;;;;;;;15.70;99.90;;;;;;5129462;27;19920;-71
2022/11/02 13:36:45;;;;;;;;;;;15.60;99.90;;;;;;5114370;27;20403;-71
2022/11/02 13:39:25;;;;;;;;;;;15.50;99.90;;;;;;5114599;27;19920;-71
2022/11/02 13:41:53;;;;;;;;;;;15.40;99.90;;;;;;5146073;27;19920;-71
2022/11/02 13:44:37;;;;;;;;;;;15.40;99.90;;;;;;5105241;27;20376;-72
2022/11/02 13:47:05;;;;;;;;;;;15.50;99.90;;;;;;5109796;27;19961;-72
2022/11/02 13:49:42;;;;;;;;;;;15.50;99.90;;;;;;5093200;27;20235;-73
2022/11/02 13:52:13;;;;;;;;;;;15.50;99.90;;;;;;5095194;27;20286;-73
2022/11/02 13:54:44;;;;;;;;;;;15.50;99.90;;;;;;5098578;27;19924;-73
2022/11/02 13:57:23;;;;;;;;;;;15.40;99.90;;;;;;5112075;27;19960;-73
2022/11/02 13:59:49;;;;;;;;;;;15.40;99.90;;;;;;5107673;27;20359;-73
2022/11/02 14:02:16;;;;;;;;;;;15.30;99.90;;;;;;5101445;27;19922;-73
2022/11/02 14:04:42;;;;;;;;;;;15.20;99.90;;;;;;5084785;27;20060;-72
2022/11/02 14:07:18;;;;;;;;;;;15.20;99.90;;;;;;5111822;27;19915;-72
2022/11/02 14:09:44;;;;;;;;;;;15.20;99.90;;;;;;5098214;27;20378;-72
2022/11/02 14:12:22;;;;;;;;;;;15.20;99.90;;;;;;5103823;27;19922;-71
2022/11/02 14:15:06;;;;;;;;;;;15.30;99.90;;;;;;5099419;27;19959;-73
2022/11/02 14:17:51;;;;;;;;;;;15.40;99.90;;;;;;5091573;27;20012;-73
2022/11/02 14:20:36;;;;;;;;;;;15.40;99.90;;;;;;5081766;27;19958;-73
2022/11/02 14:23:13;;;;;;;;;;;15.40;99.90;;;;;;5102118;27;19923;-72
2022/11/02 14:25:48;;;;;;;;;;;15.30;99.90;;;;;;5088095;27;20385;-73
2022/11/02 14:28:19;;;;;;;;;;;15.30;99.90;;;;;;5097801;27;19915;-72
2022/11/02 14:30:47;;;;;;;;;;;15.30;99.90;;;;;;5095089;27;19978;-73
2022/11/02 14:33:31;;;;;;;;;;;15.30;99.90;;;;;;5100906;27;19926;-71
2022/11/02 14:35:59;;;;;;;;;;;15.30;99.90;;;;;;5112309;27;20012;-72
2022/11/02 14:38:54;;;;;;;;;;;15.30;99.90;;;;;;5105399;27;20337;-72
2022/11/02 14:41:30;;;;;;;;;;;15.30;99.90;;;;;;5112594;27;19997;-72
2022/11/02 14:44:19;;;;;;;;;;;15.40;99.90;;;;;;5095808;27;19968;-72